Time;durP1;ratioP1;P1;durP2;ratioP2;P2;SDS_P1;SDS_P2;PMS_P1;PMS_P2;Temp;Humidity;BMP_temperature;BMP_pressure;BME280_temperature;BME280_humidity;BME280_pressure;Samples;Min_cycle;Max_cycle;Signal;HPM_P1;HPM_P2
2022/04/29 00:04:16;;;;;;;7.23;6.50;;;12.00;99.90;;;;;;10283760;28;20275;-83
2022/04/29 00:09:19;;;;;;;7.23;6.70;;;11.90;99.90;;;;;;10308882;28;20266;-82
2022/04/29 00:14:21;;;;;;;7.40;6.90;;;11.90;99.90;;;;;;10280564;28;20219;-82
2022/04/29 00:19:25;;;;;;;7.57;6.87;;;11.80;99.90;;;;;;10312648;28;20219;-82
2022/04/29 00:24:27;;;;;;;7.13;6.63;;;11.80;99.90;;;;;;10299371;28;20215;-82
2022/04/29 00:29:29;;;;;;;7.00;6.50;;;11.80;99.90;;;;;;10313943;28;20316;-81
2022/04/29 00:34:32;;;;;;;7.37;6.77;;;11.80;99.90;;;;;;10313252;28;20571;-82
2022/04/29 00:39:35;;;;;;;8.37;7.67;;;11.70;99.90;;;;;;10309388;28;20479;-82
2022/04/29 00:44:39;;;;;;;6.97;6.47;;;11.70;99.90;;;;;;10327387;28;20578;-80
2022/04/29 00:49:43;;;;;;;7.03;6.43;;;11.60;99.90;;;;;;10280504;28;20306;-81
2022/04/29 00:54:53;;;;;;;8.17;7.40;;;11.50;99.90;;;;;;10291765;28;20191;-82
2022/04/29 01:00:01;;;;;;;7.97;7.37;;;11.40;99.90;;;;;;10289092;28;20246;-81
2022/04/29 01:05:07;;;;;;;6.43;6.03;;;11.40;99.90;;;;;;10301778;28;20224;-79
2022/04/29 01:10:12;;;;;;;8.50;7.90;;;11.40;99.90;;;;;;10289939;28;20219;-80
2022/04/29 01:15:17;;;;;;;10.70;7.60;;;11.30;99.90;;;;;;10287059;28;20196;-82
2022/04/29 01:20:26;;;;;;;7.97;7.37;;;11.30;99.90;;;;;;10320659;28;20219;-82
2022/04/29 01:25:31;;;;;;;7.80;7.17;;;11.30;99.90;;;;;;10308446;28;20329;-81
2022/04/29 01:30:33;;;;;;;8.60;7.90;;;11.30;99.90;;;;;;10299680;28;20285;-80
2022/04/29 01:35:35;;;;;;;9.00;8.37;;;11.30;99.90;;;;;;10290087;28;20204;-81
2022/04/29 01:40:39;;;;;;;8.10;7.50;;;11.30;99.90;;;;;;10330199;28;20219;-81
2022/04/29 01:45:47;;;;;;;8.40;7.70;;;11.30;99.90;;;;;;10299624;28;20234;-82
2022/04/29 01:51:28;;;;;;;8.57;7.80;;;11.20;99.90;;;;;;10289822;28;20215;-81
2022/04/29 01:56:35;;;;;;;8.10;7.60;;;11.20;99.90;;;;;;10296032;28;20195;-80
2022/04/29 02:01:39;;;;;;;7.80;7.30;;;11.10;99.90;;;;;;10315224;28;20227;-82
2022/04/29 02:06:42;;;;;;;8.17;7.57;;;11.10;99.90;;;;;;10331733;28;20223;-81
2022/04/29 02:17:22;;;;;;;7.73;7.13;;;10.90;99.90;;;;;;10344685;28;20195;-81
2022/04/29 02:22:25;;;;;;;8.53;7.73;;;10.90;99.90;;;;;;10298735;28;20215;-79
2022/04/29 02:27:28;;;;;;;8.20;7.60;;;10.90;99.90;;;;;;10279092;28;20270;-80
2022/04/29 02:32:32;;;;;;;7.90;7.30;;;10.80;99.90;;;;;;10292977;28;20278;-81
2022/04/29 02:37:35;;;;;;;7.97;7.13;;;10.80;99.90;;;;;;10325515;28;20226;-82
2022/04/29 02:42:39;;;;;;;8.00;7.40;;;10.70;99.90;;;;;;10344502;28;20222;-80
2022/04/29 02:47:42;;;;;;;9.07;8.20;;;10.70;99.90;;;;;;10327403;28;20219;-82
2022/04/29 02:52:44;;;;;;;8.90;8.20;;;10.60;99.90;;;;;;10322411;28;20227;-81
2022/04/29 02:57:48;;;;;;;8.73;8.10;;;10.60;99.90;;;;;;10278392;28;20295;-81
2022/04/29 03:02:50;;;;;;;8.80;8.10;;;10.60;99.90;;;;;;10262118;28;20381;-82
2022/04/29 03:07:53;;;;;;;8.83;8.13;;;10.60;99.90;;;;;;10287289;28;20265;-82
2022/04/29 03:12:57;;;;;;;8.00;7.40;;;10.50;99.90;;;;;;10302265;28;20585;-81
2022/04/29 03:18:24;;;;;;;9.27;8.50;;;10.50;99.90;;;;;;10285431;28;20192;-82
2022/04/29 03:23:27;;;;;;;10.47;9.47;;;10.50;99.90;;;;;;10315990;28;20192;-82
2022/04/29 03:28:31;;;;;;;9.67;8.87;;;10.50;99.90;;;;;;10306704;28;20223;-82
2022/04/29 03:33:35;;;;;;;8.70;8.00;;;10.40;99.90;;;;;;10324055;28;20258;-81
2022/04/29 03:38:38;;;;;;;10.27;9.47;;;10.40;99.90;;;;;;10321289;28;20203;-81
2022/04/29 03:43:42;;;;;;;9.57;8.87;;;10.40;99.90;;;;;;10298417;28;20269;-82
2022/04/29 03:54:28;;;;;;;9.23;8.53;;;10.40;99.90;;;;;;10322620;28;20199;-82
2022/04/29 03:59:35;;;;;;;10.50;9.60;;;10.40;99.90;;;;;;10338113;28;20330;-82
2022/04/29 04:04:38;;;;;;;10.70;9.80;;;10.40;99.90;;;;;;10298519;28;20539;-82
2022/04/29 04:09:41;;;;;;;10.63;9.53;;;10.40;99.90;;;;;;10322730;28;20572;-82
2022/04/29 04:14:44;;;;;;;9.60;8.80;;;10.40;99.90;;;;;;10302020;28;20403;-82
2022/04/29 04:19:46;;;;;;;10.00;9.10;;;10.40;99.90;;;;;;10304524;28;20218;-82
2022/04/29 04:24:49;;;;;;;11.40;10.10;;;10.40;99.90;;;;;;10329986;28;20199;-82
2022/04/29 04:29:52;;;;;;;11.23;10.07;;;10.40;99.90;;;;;;10334487;28;20219;-80
2022/04/29 04:34:55;;;;;;;10.63;9.10;;;10.50;99.90;;;;;;10326138;28;20207;-80
2022/04/29 04:39:59;;;;;;;11.03;9.93;;;10.50;99.90;;;;;;10318611;28;20242;-83
2022/04/29 04:45:07;;;;;;;10.10;9.23;;;10.50;99.90;;;;;;10303036;28;20199;-80
2022/04/29 04:50:16;;;;;;;11.27;10.37;;;10.50;99.90;;;;;;10285456;28;20243;-84
2022/04/29 04:55:18;;;;;;;10.60;9.50;;;10.60;99.90;;;;;;10310424;28;20237;-83
2022/04/29 05:00:25;;;;;;;11.17;10.13;;;10.60;99.90;;;;;;10315280;28;20576;-82
2022/04/29 05:05:47;;;;;;;11.10;10.10;;;10.70;99.90;;;;;;10295461;28;20306;-82
2022/04/29 05:10:50;;;;;;;12.07;10.97;;;10.80;99.90;;;;;;10322106;28;20710;-81
2022/04/29 05:15:54;;;;;;;13.30;11.93;;;10.90;99.90;;;;;;10320411;28;20223;-81
2022/04/29 05:21:06;;;;;;;12.47;11.30;;;11.00;99.90;;;;;;10310825;28;20691;-83
2022/04/29 05:26:08;;;;;;;11.63;10.70;;;11.10;99.90;;;;;;10319971;28;20215;-84
2022/04/29 05:31:38;;;;;;;13.70;12.50;;;11.20;99.90;;;;;;10286315;23;20226;-81
2022/04/29 05:37:07;;;;;;;13.17;11.87;;;11.30;99.90;;;;;;10315523;28;20210;-81
2022/04/29 05:42:47;;;;;;;13.30;12.20;;;11.40;99.90;;;;;;10305110;28;20227;-80
2022/04/29 05:47:51;;;;;;;13.70;12.33;;;11.50;99.90;;;;;;10315552;28;20313;-80
2022/04/29 05:52:54;;;;;;;12.30;11.17;;;11.60;99.90;;;;;;10301141;28;20219;-81
2022/04/29 05:57:56;;;;;;;12.03;11.13;;;11.80;99.90;;;;;;10305928;28;20200;-81
2022/04/29 06:03:00;;;;;;;14.90;13.63;;;11.90;99.90;;;;;;10314988;28;20705;-81
2022/04/29 06:08:05;;;;;;;13.67;12.50;;;12.10;99.90;;;;;;10321813;28;20234;-79
2022/04/29 06:13:11;;;;;;;13.50;12.40;;;12.30;99.90;;;;;;10311920;28;20223;-80
2022/04/29 06:18:33;;;;;;;14.27;13.07;;;12.40;99.90;;;;;;10316140;28;20558;-80
2022/04/29 06:24:01;;;;;;;15.20;13.90;;;12.50;99.90;;;;;;10325797;28;20356;-80
2022/04/29 06:29:05;;;;;;;16.30;14.70;;;12.60;99.90;;;;;;10292141;28;20234;-81
2022/04/29 06:34:08;;;;;;;17.47;15.73;;;12.70;99.90;;;;;;10309715;28;20199;-80
2022/04/29 06:39:11;;;;;;;17.20;15.53;;;12.70;99.90;;;;;;10309672;28;20567;-80
2022/04/29 06:44:43;;;;;;;16.50;14.80;;;12.80;99.90;;;;;;10322753;28;20222;-81
2022/04/29 06:50:06;;;;;;;17.53;15.70;;;12.90;99.90;;;;;;10333557;28;20223;-81
2022/04/29 06:55:43;;;;;;;18.73;15.50;;;13.10;99.90;;;;;;10318619;28;20214;-81
2022/04/29 07:00:45;;;;;;;16.83;15.43;;;13.30;99.90;;;;;;10318314;28;20219;-81
2022/04/29 07:05:52;;;;;;;18.00;14.30;;;13.60;99.90;;;;;;10320187;28;20219;-81
2022/04/29 07:10:54;;;;;;;15.10;13.67;;;14.00;99.90;;;;;;10326047;28;20227;-82
2022/04/29 07:16:19;;;;;;;17.40;14.60;;;14.30;99.90;;;;;;10326591;28;20200;-81
2022/04/29 07:21:41;;;;;;;14.10;12.90;;;14.60;99.90;;;;;;10298855;28;20257;-80
2022/04/29 07:26:43;;;;;;;14.30;13.00;;;14.90;99.90;;;;;;10320683;28;20234;-82
2022/04/29 07:31:49;;;;;;;13.13;11.93;;;15.00;99.90;;;;;;10300735;28;20592;-81
2022/04/29 07:42:15;;;;;;;14.30;13.00;;;15.50;99.90;;;;;;10316398;28;20313;-81
2022/04/29 07:47:17;;;;;;;11.57;10.50;;;15.70;99.90;;;;;;10288273;28;20215;-80
2022/04/29 07:52:33;;;;;;;14.67;13.30;;;16.00;99.90;;;;;;10314430;28;20251;-80
2022/04/29 07:57:36;;;;;;;14.97;13.17;;;16.40;99.90;;;;;;10307521;28;20613;-80
2022/04/29 08:02:39;;;;;;;12.43;11.10;;;16.60;99.90;;;;;;10312521;28;20691;-81
2022/04/29 08:07:43;;;;;;;14.33;12.90;;;16.80;99.90;;;;;;10323992;28;20223;-80
2022/04/29 08:12:45;;;;;;;12.40;11.40;;;16.80;99.90;;;;;;10321981;28;20334;-80
2022/04/29 08:18:06;;;;;;;14.90;13.40;;;16.70;99.90;;;;;;10336813;28;20291;-81
2022/04/29 08:23:12;;;;;;;14.40;13.07;;;16.60;99.90;;;;;;10324550;28;20227;-82
2022/04/29 08:28:14;;;;;;;14.30;12.90;;;16.40;99.90;;;;;;10325184;28;20229;-82
2022/04/29 08:33:17;;;;;;;13.10;12.00;;;16.40;99.90;;;;;;10324311;28;20647;-82
2022/04/29 08:38:25;;;;;;;13.00;11.87;;;16.40;99.90;;;;;;10315991;28;20238;-81
2022/04/29 08:43:32;;;;;;;11.40;10.33;;;16.60;99.90;;;;;;10319030;28;20277;-81
2022/04/29 08:48:40;;;;;;;12.10;11.00;;;16.80;99.90;;;;;;10321043;28;20555;-81
2022/04/29 08:53:43;;;;;;;10.60;9.70;;;17.20;98.90;;;;;;10319854;28;20643;-81
2022/04/29 08:58:47;;;;;;;9.20;8.40;;;17.60;99.90;;;;;;10319911;28;20203;-81
2022/04/29 09:03:49;;;;;;;9.63;8.73;;;18.10;99.90;;;;;;10292379;28;20203;-81
2022/04/29 09:08:53;;;;;;;8.07;7.37;;;18.60;99.20;;;;;;10290804;28;20695;-82
2022/04/29 09:13:56;;;;;;;9.00;8.20;;;19.00;97.10;;;;;;10312082;28;20210;-81
2022/04/29 09:19:04;;;;;;;7.27;6.67;;;19.40;93.90;;;;;;10283579;28;20215;-82
2022/04/29 09:24:10;;;;;;;7.40;6.70;;;19.70;93.60;;;;;;10291402;28;20558;-82
2022/04/29 09:29:41;;;;;;;7.40;6.70;;;20.10;94.40;;;;;;10320217;28;20254;-82
2022/04/29 09:34:53;;;;;;;7.80;7.10;;;20.50;91.20;;;;;;10323593;28;20206;-81
2022/04/29 09:39:58;;;;;;;8.53;7.63;;;20.90;90.70;;;;;;10323539;28;20622;-81
2022/04/29 09:45:11;;;;;;;7.30;6.60;;;21.20;84.40;;;;;;10327963;28;20222;-82
2022/04/29 09:50:14;;;;;;;7.73;6.93;;;21.60;84.40;;;;;;10310262;28;20386;-82
2022/04/29 09:55:19;;;;;;;7.93;7.33;;;21.90;79.40;;;;;;10343499;28;20202;-82
2022/04/29 10:00:22;;;;;;;6.50;5.87;;;22.00;71.60;;;;;;10293097;28;20220;-80
2022/04/29 10:05:24;;;;;;;5.87;5.27;;;21.90;80.40;;;;;;10288171;28;20626;-81
2022/04/29 10:10:36;;;;;;;5.73;5.33;;;21.80;82.60;;;;;;10296929;28;20751;-82
2022/04/29 10:15:42;;;;;;;6.30;5.70;;;21.80;76.20;;;;;;10282382;28;20204;-82
2022/04/29 10:21:17;;;;;;;4.80;4.50;;;21.60;77.70;;;;;;10294095;28;20701;-79
2022/04/29 10:26:23;;;;;;;4.77;4.47;;;21.30;75.90;;;;;;10289323;28;20233;-80
2022/04/29 10:31:29;;;;;;;5.40;5.00;;;21.00;73.80;;;;;;10283120;28;20590;-80
2022/04/29 10:36:31;;;;;;;5.20;4.70;;;20.80;67.00;;;;;;10289240;28;20491;-80
2022/04/29 10:41:34;;;;;;;4.23;4.03;;;20.40;69.20;;;;;;10300137;28;20259;-80
2022/04/29 10:46:38;;;;;;;4.70;4.40;;;20.20;71.70;;;;;;10265688;28;20215;-79
2022/04/29 10:51:47;;;;;;;4.83;4.53;;;20.10;64.30;;;;;;10308758;28;20243;-80
2022/04/29 10:57:04;;;;;;;4.93;4.53;;;19.80;69.40;;;;;;10290594;28;20562;-79
2022/04/29 11:02:08;;;;;;;5.20;4.90;;;19.60;70.00;;;;;;10297810;28;20223;-80
2022/04/29 11:07:36;;;;;;;4.57;4.27;;;19.40;71.90;;;;;;10289535;28;20212;-80
2022/04/29 11:12:55;;;;;;;5.80;5.30;;;19.20;71.40;;;;;;10331110;28;20223;-80
2022/04/29 11:18:19;;;;;;;5.77;5.27;;;19.10;68.00;;;;;;10322198;28;20277;-80
2022/04/29 11:28:54;;;;;;;4.90;4.60;;;19.10;68.20;;;;;;10318416;28;20234;-79
2022/04/29 11:34:06;;;;;;;5.20;4.80;;;19.20;71.30;;;;;;10397156;23;20230;-81
2022/04/29 11:39:10;;;;;;;5.10;4.70;;;19.40;64.80;;;;;;10367994;28;20199;-82
2022/04/29 11:44:14;;;;;;;4.90;4.60;;;19.60;65.70;;;;;;10377938;28;20233;-82
2022/04/29 11:49:27;;;;;;;5.67;5.27;;;19.80;74.30;;;;;;10375063;28;20255;-81
2022/04/29 11:54:30;;;;;;;4.77;4.47;;;20.10;63.90;;;;;;10377285;28;20213;-81
2022/04/29 11:59:34;;;;;;;4.97;4.53;;;20.20;63.30;;;;;;10351561;28;20254;-82
2022/04/29 12:04:36;;;;;;;4.80;4.50;;;20.30;66.60;;;;;;10369801;28;20665;-81
2022/04/29 12:09:39;;;;;;;4.30;3.90;;;20.40;71.20;;;;;;10360941;28;20312;-81
2022/04/29 12:14:43;;;;;;;5.80;5.30;;;20.40;70.00;;;;;;10340544;28;20294;-81
2022/04/29 12:19:48;;;;;;;5.20;4.80;;;20.40;67.00;;;;;;10337585;28;20242;-83
2022/04/29 12:24:51;;;;;;;5.37;4.67;;;20.40;62.80;;;;;;10358799;28;20202;-84
2022/04/29 12:35:14;;;;;;;4.33;4.03;;;20.40;64.20;;;;;;10342773;28;20206;-82
2022/04/29 12:40:16;;;;;;;5.37;5.00;;;20.40;69.90;;;;;;10340603;28;20214;-83
2022/04/29 12:45:27;;;;;;;4.67;4.47;;;20.40;67.90;;;;;;10339842;28;20209;-83
2022/04/29 12:50:39;;;;;;;5.30;4.90;;;20.30;65.10;;;;;;10360237;28;20226;-83
2022/04/29 12:55:50;;;;;;;6.10;5.60;;;20.20;66.90;;;;;;10344564;28;20542;-86
2022/04/29 13:01:06;;;;;;;5.33;5.03;;;20.10;62.80;;;;;;10348998;28;20218;-85
2022/04/29 13:06:28;;;;;;;4.70;4.30;;;20.00;60.80;;;;;;10358290;28;20285;-84
2022/04/29 13:11:32;;;;;;;5.43;4.93;;;19.70;67.30;;;;;;10359770;28;20345;-84
2022/04/29 13:16:40;;;;;;;6.10;5.50;;;19.60;63.70;;;;;;10335087;28;20198;-83
2022/04/29 13:21:42;;;;;;;5.30;4.90;;;19.50;60.60;;;;;;10372655;28;20229;-82
2022/04/29 13:26:45;;;;;;;6.40;5.27;;;19.40;65.00;;;;;;10340911;28;20198;-83
2022/04/29 13:31:49;;;;;;;5.70;5.20;;;19.40;60.60;;;;;;10356625;28;20233;-83
2022/04/29 13:36:52;;;;;;;5.43;4.93;;;19.40;58.50;;;;;;10344344;28;21025;-83
2022/04/29 13:41:54;;;;;;;5.53;5.10;;;19.30;67.80;;;;;;10377617;28;20218;-83
2022/04/29 13:46:58;;;;;;;4.50;4.20;;;19.30;65.30;;;;;;10359540;28;20203;-83
2022/04/29 13:53:07;;;;;;;5.13;4.73;;;19.40;68.50;;;;;;10362479;28;20295;-83
2022/04/29 13:57:23;;;;;;;5.03;4.53;;;19.40;63.80;;;;;;10362230;28;20194;-83
2022/04/29 14:02:27;;;;;;;6.37;5.60;;;19.50;62.00;;;;;;10340980;28;20475;-84
2022/04/29 14:07:30;;;;;;;4.80;4.40;;;19.50;75.50;;;;;;10339727;28;20218;-83
2022/04/29 14:12:32;;;;;;;5.13;4.77;;;19.50;71.60;;;;;;10375329;28;20214;-86
2022/04/29 14:17:36;;;;;;;5.57;5.17;;;19.60;74.90;;;;;;10375162;28;20221;-82
2022/04/29 14:22:41;;;;;;;5.00;4.60;;;19.60;80.50;;;;;;10375075;28;20222;-83
2022/04/29 14:27:59;;;;;;;4.80;4.50;;;19.70;71.10;;;;;;10356883;28;20210;-81
2022/04/29 14:33:02;;;;;;;4.40;4.20;;;19.80;74.30;;;;;;10341400;28;20230;-83
2022/04/29 14:38:05;;;;;;;5.00;4.60;;;19.90;76.70;;;;;;10356125;28;20679;-85
2022/04/29 14:43:10;;;;;;;4.17;3.97;;;19.90;80.60;;;;;;10371232;28;20238;-82
2022/04/29 14:48:13;;;;;;;4.30;4.00;;;19.90;83.40;;;;;;10340516;28;20228;-82
2022/04/29 14:53:16;;;;;;;4.80;4.40;;;19.80;84.60;;;;;;10353066;28;20686;-82
2022/04/29 14:58:18;;;;;;;4.60;4.30;;;19.60;76.50;;;;;;10356680;28;20225;-83
2022/04/29 15:03:21;;;;;;;6.57;4.67;;;19.60;85.30;;;;;;10341193;28;20257;-83
2022/04/29 15:08:33;;;;;;;4.53;4.23;;;19.50;87.90;;;;;;10360500;28;20207;-83
2022/04/29 15:19:08;;;;;;;4.80;4.50;;;19.30;90.30;;;;;;10374218;28;20198;-84
2022/04/29 15:24:10;;;;;;;5.43;4.90;;;19.30;89.20;;;;;;10373287;28;20264;-84
2022/04/29 15:29:13;;;;;;;5.20;4.80;;;19.30;83.90;;;;;;10367859;28;20280;-83
2022/04/29 15:34:16;;;;;;;6.10;4.80;;;19.20;83.60;;;;;;10368761;28;20218;-84
2022/04/29 15:39:20;;;;;;;5.00;4.50;;;19.10;75.90;;;;;;10380623;28;20190;-83
2022/04/29 15:44:22;;;;;;;4.33;3.97;;;19.10;86.70;;;;;;10344859;28;20277;-84
2022/04/29 15:49:26;;;;;;;4.67;4.27;;;19.10;89.30;;;;;;10378280;28;20580;-83
2022/04/29 15:54:29;;;;;;;4.70;4.30;;;19.10;90.00;;;;;;10344533;28;20214;-85
2022/04/29 15:59:31;;;;;;;4.60;4.20;;;19.00;90.50;;;;;;10342515;28;20217;-82
2022/04/29 16:04:35;;;;;;;5.83;4.50;;;19.00;88.80;;;;;;10380358;28;20206;-82
2022/04/29 16:09:37;;;;;;;5.03;4.60;;;18.90;91.30;;;;;;10375276;28;20222;-85
2022/04/29 16:14:39;;;;;;;5.20;4.83;;;18.80;85.10;;;;;;10341963;28;20237;-83
2022/04/29 16:30:22;;;;;;;5.50;5.00;;;18.70;75.10;;;;;;10340588;28;20252;-84
2022/04/29 16:35:26;;;;;;;5.50;5.10;;;18.70;72.70;;;;;;10356848;28;20663;-84
2022/04/29 16:40:29;;;;;;;5.47;5.13;;;18.80;69.80;;;;;;10356290;28;20284;-84
2022/04/29 16:45:31;;;;;;;5.53;5.13;;;18.80;76.30;;;;;;10342107;28;20361;-83
2022/04/29 16:50:36;;;;;;;5.20;4.87;;;18.80;75.50;;;;;;10345832;28;20234;-83
2022/04/29 16:55:39;;;;;;;5.00;4.70;;;18.80;79.90;;;;;;10366111;28;20301;-83
2022/04/29 17:00:41;;;;;;;5.30;4.90;;;18.80;85.30;;;;;;10361676;28;20222;-83
2022/04/29 17:05:46;;;;;;;4.60;4.30;;;18.70;90.30;;;;;;10365247;28;20225;-83
2022/04/29 17:10:48;;;;;;;5.27;4.87;;;18.60;91.40;;;;;;10358069;28;20234;-83
2022/04/29 17:15:51;;;;;;;5.20;4.80;;;18.40;89.00;;;;;;10346591;28;20202;-83
2022/04/29 17:20:57;;;;;;;5.40;5.00;;;18.30;92.00;;;;;;10348048;28;20211;-83
2022/04/29 17:26:00;;;;;;;5.13;4.83;;;18.20;92.60;;;;;;10368338;28;20301;-83
2022/04/29 17:31:02;;;;;;;5.60;5.07;;;18.20;92.80;;;;;;10344259;23;20647;-80
2022/04/29 17:36:06;;;;;;;4.90;4.60;;;18.10;91.60;;;;;;10305919;28;20266;-81
2022/04/29 17:46:28;;;;;;;6.07;5.57;;;17.90;92.60;;;;;;10269050;28;20199;-80
2022/04/29 17:51:31;;;;;;;6.10;5.57;;;17.80;93.30;;;;;;10327481;28;20231;-82
2022/04/29 17:56:33;;;;;;;4.90;4.60;;;17.80;91.50;;;;;;10319712;28;20241;-83
2022/04/29 18:01:35;;;;;;;5.30;4.90;;;17.80;92.90;;;;;;10300008;28;20377;-81
2022/04/29 18:06:42;;;;;;;5.67;5.17;;;17.70;92.80;;;;;;10338570;28;20213;-82
2022/04/29 18:11:44;;;;;;;5.17;4.67;;;17.60;92.30;;;;;;10332914;28;20314;-83
2022/04/29 18:16:46;;;;;;;4.77;4.47;;;17.60;93.90;;;;;;10319198;28;20230;-82
2022/04/29 18:21:50;;;;;;;6.40;4.83;;;17.40;91.30;;;;;;10321263;28;20226;-81
2022/04/29 18:26:53;;;;;;;5.07;4.60;;;17.40;93.60;;;;;;10309959;28;20217;-81
2022/04/29 18:31:56;;;;;;;5.90;5.40;;;17.20;92.50;;;;;;10315384;28;20236;-82
2022/04/29 18:37:01;;;;;;;6.00;5.60;;;17.10;93.50;;;;;;10328530;28;20553;-81
2022/04/29 18:42:04;;;;;;;6.10;5.63;;;17.00;92.90;;;;;;10323335;28;20234;-80
2022/04/29 18:47:07;;;;;;;7.80;7.00;;;16.90;91.80;;;;;;10314238;28;20219;-81
2022/04/29 18:52:13;;;;;;;5.80;5.37;;;16.80;93.30;;;;;;10320223;28;20659;-80
2022/04/29 18:57:16;;;;;;;5.97;5.40;;;16.70;91.60;;;;;;10324587;28;20214;-82
2022/04/29 19:02:19;;;;;;;5.73;5.23;;;16.60;91.60;;;;;;10300108;28;20695;-81
2022/04/29 19:07:23;;;;;;;6.03;5.43;;;16.50;91.50;;;;;;10316578;28;20199;-83
2022/04/29 19:12:25;;;;;;;6.00;5.50;;;16.40;91.10;;;;;;10319656;28;20234;-82
2022/04/29 19:17:28;;;;;;;7.37;6.00;;;16.30;92.30;;;;;;10320498;28;20218;-82
2022/04/29 19:22:31;;;;;;;5.47;5.07;;;16.20;92.70;;;;;;10303385;28;20241;-82
2022/04/29 19:27:33;;;;;;;5.27;4.97;;;16.10;93.10;;;;;;10332549;28;20215;-80
2022/04/29 19:32:36;;;;;;;6.73;6.03;;;16.00;91.80;;;;;;10311044;28;20601;-81
2022/04/29 19:37:39;;;;;;;6.97;6.30;;;16.00;91.90;;;;;;10319880;28;20253;-81
2022/04/29 19:42:41;;;;;;;6.07;5.57;;;15.90;91.20;;;;;;10331144;28;20246;-81
2022/04/29 19:47:44;;;;;;;6.33;5.83;;;15.80;91.40;;;;;;10309260;28;20207;-82
2022/04/29 19:52:49;;;;;;;5.97;5.57;;;15.70;91.50;;;;;;10313197;28;20242;-81
2022/04/29 20:08:34;;;;;;;6.27;5.67;;;15.40;90.70;;;;;;10317444;28;20226;-82
2022/04/29 20:13:36;;;;;;;6.30;5.80;;;15.40;92.00;;;;;;10318845;28;20262;-82
2022/04/29 20:18:38;;;;;;;6.07;5.57;;;15.30;91.00;;;;;;10315954;28;20271;-81
2022/04/29 20:23:42;;;;;;;6.17;5.63;;;15.20;91.80;;;;;;10324341;28;20230;-80
2022/04/29 20:28:44;;;;;;;6.83;6.33;;;15.10;92.40;;;;;;10319301;28;20218;-81
2022/04/29 20:33:48;;;;;;;7.73;7.00;;;15.10;93.30;;;;;;10311644;28;20326;-82
2022/04/29 20:38:51;;;;;;;7.77;7.07;;;15.00;94.00;;;;;;10313839;28;20191;-81
2022/04/29 20:44:00;;;;;;;10.70;7.30;;;15.00;92.90;;;;;;10315956;28;20247;-82
2022/04/29 20:49:03;;;;;;;8.53;7.40;;;14.90;94.00;;;;;;10332181;28;20243;-82
2022/04/29 20:54:07;;;;;;;8.87;8.07;;;14.90;92.50;;;;;;10292311;28;20302;-82
2022/04/29 20:59:09;;;;;;;9.20;7.20;;;14.80;93.40;;;;;;10323165;28;20204;-82
2022/04/29 21:04:11;;;;;;;8.03;7.33;;;14.80;93.50;;;;;;10312514;28;20277;-81
2022/04/29 21:09:15;;;;;;;8.53;7.83;;;14.70;94.40;;;;;;10340796;28;20246;-82
2022/04/29 21:14:19;;;;;;;8.30;7.40;;;14.70;94.10;;;;;;10304971;28;20214;-82
2022/04/29 21:19:21;;;;;;;7.80;7.20;;;14.70;94.60;;;;;;10299298;28;20229;-81
2022/04/29 21:24:25;;;;;;;9.10;8.30;;;14.70;94.50;;;;;;10323888;28;20683;-81
2022/04/29 21:34:47;;;;;;;8.43;7.73;;;14.60;94.50;;;;;;10329014;28;20237;-81
2022/04/29 21:39:51;;;;;;;8.40;7.70;;;14.60;94.10;;;;;;10320500;28;20195;-81
2022/04/29 21:44:54;;;;;;;7.93;7.33;;;14.50;94.90;;;;;;10340564;28;20202;-82
2022/04/29 21:49:56;;;;;;;8.30;7.50;;;14.50;95.00;;;;;;10320825;28;20308;-81
2022/04/29 21:55:01;;;;;;;7.77;7.17;;;14.50;94.70;;;;;;10316725;28;20203;-82
2022/04/29 22:00:06;;;;;;;7.37;6.77;;;14.50;95.00;;;;;;10328221;28;20220;-81
2022/04/29 22:05:17;;;;;;;8.30;7.70;;;14.50;96.80;;;;;;10304173;28;20203;-82
2022/04/29 22:10:21;;;;;;;7.60;7.00;;;14.50;97.30;;;;;;10298521;28;20226;-83
2022/04/29 22:15:24;;;;;;;7.70;7.10;;;14.50;96.20;;;;;;10303234;28;20203;-81
2022/04/29 22:20:26;;;;;;;8.40;6.87;;;14.60;96.40;;;;;;10301806;28;20305;-83
2022/04/29 22:25:30;;;;;;;10.50;8.47;;;14.60;96.00;;;;;;10295356;28;20274;-82
2022/04/29 22:30:32;;;;;;;11.57;6.50;;;14.60;97.30;;;;;;10333357;28;20256;-82
2022/04/29 22:35:35;;;;;;;8.00;7.20;;;14.60;97.00;;;;;;10309382;28;20203;-82
2022/04/29 22:40:38;;;;;;;7.93;7.23;;;14.70;97.00;;;;;;10341200;28;20233;-81
2022/04/29 22:45:40;;;;;;;8.13;7.43;;;14.60;97.40;;;;;;10324985;28;20211;-82
2022/04/29 22:50:44;;;;;;;7.67;7.07;;;14.60;97.00;;;;;;10302017;28;20246;-82
2022/04/29 22:55:47;;;;;;;7.67;6.97;;;14.60;96.70;;;;;;10331250;28;20217;-82
2022/04/29 23:00:49;;;;;;;8.77;8.07;;;14.60;96.90;;;;;;10322379;28;20289;-81
2022/04/29 23:05:53;;;;;;;9.17;8.10;;;14.60;97.50;;;;;;10295801;28;20210;-81
2022/04/29 23:10:58;;;;;;;8.40;7.70;;;14.60;97.50;;;;;;10296973;28;20250;-83
2022/04/29 23:16:00;;;;;;;8.60;7.90;;;14.60;96.70;;;;;;10310387;28;20199;-81
2022/04/29 23:21:03;;;;;;;7.50;6.90;;;14.60;98.20;;;;;;10299467;28;20218;-81
2022/04/29 23:26:07;;;;;;;8.00;7.40;;;14.60;98.20;;;;;;10333205;28;20225;-81
2022/04/29 23:31:09;;;;;;;8.20;7.40;;;14.70;98.40;;;;;;10302901;28;20219;-81
2022/04/29 23:36:13;;;;;;;7.50;7.00;;;14.70;98.90;;;;;;10312026;28;20208;-83
2022/04/29 23:41:16;;;;;;;8.00;7.30;;;14.70;98.50;;;;;;10311286;28;20211;-82
2022/04/29 23:46:19;;;;;;;10.13;9.23;;;14.70;98.40;;;;;;10320347;28;20678;-81
2022/04/29 23:51:21;;;;;;;8.60;7.80;;;14.70;98.20;;;;;;10314011;28;20218;-83
2022/04/29 23:56:25;;;;;;;8.03;7.33;;;14.70;98.40;;;;;;10308608;28;20305;-82
